createdAt,value
2018-06-18T00:00:58.877Z,101449.82
2018-06-18T00:03:27.211Z,101452.01
2018-06-18T00:05:55.468Z,101457.16
2018-06-18T00:08:24.296Z,101456.89
2018-06-18T00:10:52.600Z,101456.89
2018-06-18T00:13:20.992Z,101453.90
2018-06-18T00:15:49.355Z,101465.60
2018-06-18T00:18:17.708Z,101481.37
2018-06-18T00:20:45.936Z,101486.26
2018-06-18T00:23:14.269Z,101476.49
2018-06-18T00:25:42.550Z,101473.48
2018-06-18T00:28:10.791Z,101471.58
2018-06-18T00:30:39.108Z,101470.73
2018-06-18T00:33:07.819Z,101467.23
2018-06-18T00:35:36.195Z,101460.42
2018-06-18T00:38:04.450Z,101453.33
2018-06-18T00:40:32.769Z,101456.34
2018-06-18T00:43:01.147Z,101452.00
2018-06-18T00:45:29.374Z,101453.36
2018-06-18T00:47:57.679Z,101447.92
2018-06-18T00:50:25.929Z,101458.50
2018-06-18T00:52:54.264Z,101454.69
2018-06-18T00:55:33.875Z,101441.66
2018-06-18T00:58:02.201Z,101453.36
2018-06-18T01:00:30.485Z,101452.80
2018-06-18T01:02:58.898Z,101455.23
2018-06-18T01:05:27.183Z,101462.05
2018-06-18T01:07:55.487Z,101451.17
2018-06-18T01:10:23.782Z,101459.26
2018-06-18T01:12:52.260Z,101462.05
2018-06-18T01:15:20.485Z,101475.08
2018-06-18T01:17:48.794Z,101467.48
2018-06-18T01:20:17.028Z,101468.84
2018-06-18T01:22:49.420Z,101475.64
2018-06-18T01:25:17.743Z,101471.50
2018-06-18T01:27:45.963Z,101475.38
2018-06-18T01:30:14.233Z,101476.17
2018-06-18T01:32:42.549Z,101474.55
2018-06-18T01:35:10.851Z,101477.77
2018-06-18T01:39:15.627Z,101477.26
2018-06-18T01:41:44.015Z,101466.12
2018-06-18T01:44:12.404Z,101457.86
2018-06-18T01:46:40.669Z,101449.90
2018-06-18T01:49:08.957Z,101449.09
2018-06-18T01:51:37.224Z,101444.30
2018-06-18T01:54:05.526Z,101433.20
2018-06-18T01:56:33.825Z,101434.33
2018-06-18T01:59:02.166Z,101432.38
2018-06-18T02:01:31.419Z,101424.41
2018-06-18T02:03:59.671Z,101426.70
2018-06-18T02:06:27.916Z,101431.66
2018-06-18T02:08:56.157Z,101423.30
2018-06-18T02:11:24.449Z,101427.27
2018-06-18T02:13:53.317Z,101427.49
2018-06-18T02:16:21.703Z,101430.50
2018-06-18T02:18:50.004Z,101432.18
2018-06-18T02:21:18.335Z,101440.56
2018-06-18T02:23:46.596Z,101448.82
2018-06-18T02:26:14.837Z,101452.75
2018-06-18T02:28:48.408Z,101456.34
2018-06-18T02:31:22.082Z,101464.91
2018-06-18T02:33:55.609Z,101468.02
2018-06-18T02:36:29.127Z,101470.41
2018-06-18T02:39:02.797Z,101467.09
2018-06-18T02:41:31.139Z,101463.08
2018-06-18T03:01:24.058Z,101471.65
2018-06-18T03:03:52.360Z,101469.80
2018-06-18T03:06:20.695Z,101470.38
2018-06-18T03:08:48.999Z,101478.00
2018-06-18T03:11:17.263Z,101469.88
2018-06-18T03:13:45.523Z,101466.48
2018-06-18T03:16:13.919Z,101467.78
2018-06-18T03:18:47.583Z,101465.77
2018-06-18T03:21:21.153Z,101469.53
2018-06-18T03:23:54.828Z,101469.78
2018-06-18T03:26:28.344Z,101467.17
2018-06-18T03:29:19.186Z,101459.48
2018-06-18T03:31:47.474Z,101473.44
2018-06-18T03:34:15.723Z,101474.97
2018-06-18T03:36:45.106Z,101469.29
2018-06-18T03:39:14.432Z,101471.00
2018-06-18T03:41:45.131Z,101462.25
2018-06-18T03:44:16.340Z,101465.70
2018-06-18T03:46:44.614Z,101462.13
2018-06-18T03:49:12.956Z,101466.27
2018-06-18T03:51:41.273Z,101467.92
2018-06-18T03:54:09.575Z,101473.13
2018-06-18T03:56:37.786Z,101481.34
2018-06-18T03:59:06.142Z,101479.16
2018-06-18T04:01:49.944Z,101482.72
2018-06-18T04:04:23.557Z,101480.98
2018-06-18T04:06:57.131Z,101489.77
2018-06-18T04:09:30.649Z,101491.63
2018-06-18T04:12:06.831Z,101496.11
2018-06-18T04:14:35.378Z,101487.65
2018-06-18T04:17:03.665Z,101488.55
2018-06-18T04:22:07.966Z,101491.53
2018-06-18T04:24:36.246Z,101484.47
2018-06-18T04:27:04.619Z,101489.69
2018-06-18T04:29:32.943Z,101485.31
2018-06-18T04:32:01.223Z,101477.45
2018-06-18T04:34:34.771Z,101475.55
2018-06-18T04:37:03.132Z,101483.80
2018-06-18T04:39:31.391Z,101486.30
2018-06-18T04:42:05.096Z,101483.85
2018-06-18T04:44:38.605Z,101486.41
2018-06-18T04:47:12.322Z,101492.31
2018-06-18T04:49:45.821Z,101486.66
2018-06-18T04:52:14.105Z,101485.31
2018-06-18T04:54:42.360Z,101491.72
2018-06-18T04:57:11.510Z,101490.87
2018-06-18T04:59:42.722Z,101492.61
2018-06-18T05:02:10.965Z,101490.50
2018-06-18T05:04:39.317Z,101498.33
2018-06-18T05:07:07.777Z,101497.56
2018-06-18T05:09:54.236Z,101495.10
2018-06-18T05:12:22.756Z,101499.95
2018-06-18T05:14:51.487Z,101503.11
2018-06-18T05:17:19.835Z,101500.48
2018-06-18T05:19:48.189Z,101504.58
2018-06-18T05:22:18.515Z,101504.59
2018-06-18T05:24:46.937Z,101505.47
2018-06-18T05:27:15.375Z,101506.31
2018-06-18T05:29:43.687Z,101495.72
2018-06-18T05:32:11.945Z,101497.05
2018-06-18T05:34:40.234Z,101486.26
2018-06-18T05:37:12.180Z,101479.96
2018-06-18T05:39:40.445Z,101461.52
2018-06-18T05:42:08.766Z,101455.83
2018-06-18T05:44:37.020Z,101459.09
2018-06-18T05:47:05.416Z,101466.73
2018-06-18T05:49:33.640Z,101472.76
2018-06-18T05:52:01.943Z,101468.70
2018-06-18T05:54:30.185Z,101468.92
2018-06-18T05:56:58.469Z,101468.02
2018-06-18T05:59:26.702Z,101475.18
2018-06-18T06:01:54.973Z,101478.75
2018-06-18T06:04:23.228Z,101483.64
2018-06-18T06:06:51.453Z,101486.38
2018-06-18T06:28:23.703Z,101497.78
2018-06-18T06:30:51.935Z,101505.98
2018-06-18T06:33:21.015Z,101504.36
2018-06-18T06:35:49.635Z,101509.30
2018-06-18T06:38:18.204Z,101507.08
2018-06-18T06:40:46.534Z,101516.17
2018-06-18T06:43:14.856Z,101515.33
2018-06-18T06:45:43.126Z,101513.44
2018-06-18T06:48:11.385Z,101521.37
2018-06-18T06:50:39.673Z,101519.19
2018-06-18T06:53:07.974Z,101522.19
2018-06-18T06:55:36.296Z,101518.93
2018-06-18T06:58:04.694Z,101513.76
2018-06-18T07:00:33.002Z,101511.59
2018-06-18T07:03:01.278Z,101518.67
2018-06-18T07:05:29.999Z,101517.84
2018-06-18T07:07:58.374Z,101517.83
2018-06-18T07:10:26.735Z,101525.22
2018-06-18T07:12:55.094Z,101526.28
2018-06-18T07:15:23.349Z,101519.77
2018-06-18T07:17:51.638Z,101527.12
2018-06-18T07:20:19.952Z,101532.28
2018-06-18T07:22:48.338Z,101523.28
2018-06-18T07:25:16.609Z,101526.59
2018-06-18T07:27:44.959Z,101532.55
2018-06-18T07:30:13.337Z,101519.75
2018-06-18T07:32:41.677Z,101511.02
2018-06-18T07:35:10.092Z,101511.58
2018-06-18T07:37:38.387Z,101510.23
2018-06-18T07:40:06.757Z,101513.49
2018-06-18T07:42:35.196Z,101512.38
2018-06-18T07:45:03.578Z,101511.57
2018-06-18T07:47:31.902Z,101509.67
2018-06-18T07:50:01.102Z,101512.69
2018-06-18T07:52:29.987Z,101509.41
2018-06-18T07:54:58.336Z,101513.44
2018-06-18T07:57:26.682Z,101500.06
2018-06-18T07:59:54.943Z,101500.63
2018-06-18T08:02:23.229Z,101497.02
2018-06-18T08:04:51.594Z,101486.08
2018-06-18T08:07:19.931Z,101486.45
2018-06-18T08:09:48.533Z,101480.72
2018-06-18T08:12:16.984Z,101480.41
2018-06-18T08:14:45.457Z,101476.84
2018-06-18T08:17:13.813Z,101474.67
2018-06-18T08:19:42.371Z,101477.09
2018-06-18T08:22:10.939Z,101485.02
2018-06-18T08:24:39.397Z,101482.79
2018-06-18T08:27:07.726Z,101477.30
2018-06-18T08:29:36.355Z,101470.89
2018-06-18T08:32:05.405Z,101473.73
2018-06-18T08:34:33.869Z,101472.05
2018-06-18T08:37:02.411Z,101473.90
2018-06-18T08:39:31.501Z,101476.98
2018-06-18T08:41:59.915Z,101484.23
2018-06-18T08:44:28.517Z,101473.13
2018-06-18T08:46:57.452Z,101481.94
2018-06-18T08:49:26.162Z,101471.09
2018-06-18T08:51:59.808Z,101468.64
2018-06-18T08:54:33.570Z,101471.89
2018-06-18T08:57:07.093Z,101467.48
2018-06-18T08:59:40.699Z,101469.48
2018-06-18T09:02:09.069Z,101470.54
2018-06-18T09:04:43.012Z,101468.14
2018-06-18T09:07:16.113Z,101476.16
2018-06-18T09:09:45.211Z,101474.56
2018-06-18T09:12:13.492Z,101474.09
2018-06-18T09:14:43.775Z,101466.31
2018-06-18T09:17:12.192Z,101466.31
2018-06-18T09:19:40.857Z,101466.36
2018-06-18T09:22:09.455Z,101472.92
2018-06-18T09:24:38.848Z,101467.77
2018-06-18T09:27:14.191Z,101478.97
2018-06-18T09:29:47.690Z,101471.67
2018-06-18T09:32:16.164Z,101482.67
2018-06-18T09:34:44.973Z,101475.67
2018-06-18T09:37:13.814Z,101488.45
2018-06-18T09:39:42.181Z,101483.55
2018-06-18T09:42:10.584Z,101491.89
2018-06-18T09:44:38.931Z,101493.98
2018-06-18T09:47:07.228Z,101489.33
2018-06-18T09:49:40.922Z,101480.81
2018-06-18T09:52:14.437Z,101486.57
2018-06-18T09:54:48.009Z,101483.79
2018-06-18T09:57:27.662Z,101486.18
2018-06-18T10:00:13.795Z,101486.61
2018-06-18T10:02:42.207Z,101488.51
2018-06-18T10:05:10.746Z,101489.91
2018-06-18T10:07:42.217Z,101487.69
2018-06-18T10:10:11.526Z,101481.28
2018-06-18T10:12:39.915Z,101487.33
2018-06-18T10:15:09.859Z,101485.47
2018-06-18T10:17:38.303Z,101482.58
2018-06-18T10:20:06.735Z,101495.67
2018-06-18T10:22:35.088Z,101488.03
2018-06-18T10:25:03.484Z,101496.73
2018-06-18T10:27:33.184Z,101501.90
2018-06-18T10:30:01.484Z,101506.50
2018-06-18T10:33:35.670Z,101507.27
2018-06-18T10:36:09.456Z,101505.09
2018-06-18T10:38:44.163Z,101503.59
2018-06-18T10:41:18.443Z,101503.29
2018-06-18T10:43:47.680Z,101496.91
2018-06-18T10:46:15.947Z,101495.84
2018-06-18T10:48:44.474Z,101501.73
2018-06-18T10:51:13.262Z,101500.14
2018-06-18T10:53:41.592Z,101507.60
2018-06-18T10:56:12.406Z,101497.44
2018-06-18T10:58:40.811Z,101497.31
2018-06-18T11:01:12.433Z,101495.55
2018-06-18T11:03:40.755Z,101487.22
2018-06-18T11:06:14.402Z,101484.08
2018-06-18T11:08:42.883Z,101477.91
2018-06-18T11:11:11.264Z,101477.30
2018-06-18T11:13:39.492Z,101488.50
2018-06-18T11:16:07.924Z,101488.30
2018-06-18T11:18:41.389Z,101487.13
2018-06-18T11:22:18.941Z,101488.69
2018-06-18T11:24:52.474Z,101493.99
2018-06-18T11:27:20.785Z,101493.16
2018-06-18T11:29:49.011Z,101496.09
2018-06-18T11:32:17.378Z,101501.71
2018-06-18T11:34:45.562Z,101509.00
2018-06-18T11:37:14.795Z,101511.80
2018-06-18T11:39:43.025Z,101508.68
2018-06-18T11:42:11.348Z,101503.71
2018-06-18T11:44:40.595Z,101507.29
2018-06-18T11:47:08.853Z,101513.50
2018-06-18T11:49:37.157Z,101514.77
2018-06-18T11:52:05.548Z,101515.30
2018-06-18T11:54:33.823Z,101519.84
2018-06-18T11:57:02.136Z,101528.10
2018-06-18T11:59:35.655Z,101532.24
2018-06-18T12:02:09.121Z,101523.52
2018-06-18T12:04:42.577Z,101526.80
2018-06-18T12:07:16.351Z,101529.49
2018-06-18T12:09:44.608Z,101523.98
2018-06-18T12:12:12.754Z,101516.66
2018-06-18T12:14:40.968Z,101507.38
2018-06-18T12:17:09.163Z,101515.02
2018-06-18T12:19:37.392Z,101507.66
2018-06-18T12:24:32.897Z,101512.16
2018-06-18T12:27:01.644Z,101499.20
2018-06-18T12:29:29.946Z,101496.36
2018-06-18T12:31:58.164Z,101501.75
2018-06-18T12:34:26.583Z,101490.92
2018-06-18T12:36:54.840Z,101486.83
2018-06-18T12:39:23.079Z,101489.36
2018-06-18T12:41:56.406Z,101483.89
2018-06-18T12:44:24.656Z,101481.59
2018-06-18T12:48:01.745Z,101487.79
2018-06-18T12:50:35.298Z,101485.34
2018-06-18T12:53:09.613Z,101488.13
2018-06-18T12:55:43.163Z,101483.59
2018-06-18T12:58:11.400Z,101478.38
2018-06-18T13:00:40.539Z,101478.05
2018-06-18T13:03:11.672Z,101475.88
2018-06-18T13:05:40.000Z,101471.20
2018-06-18T13:08:08.362Z,101454.07
2018-06-18T13:10:36.607Z,101461.92
2018-06-18T13:13:04.867Z,101459.14
2018-06-18T13:15:33.164Z,101458.36
2018-06-18T13:18:01.457Z,101452.81
2018-06-18T13:20:29.807Z,101448.17
2018-06-18T13:22:58.204Z,101456.30
2018-06-18T13:25:26.582Z,101454.19
2018-06-18T13:28:00.198Z,101452.14
2018-06-18T13:30:28.891Z,101445.83
2018-06-18T13:32:58.462Z,101449.94
2018-06-18T13:35:27.680Z,101454.00
2018-06-18T13:38:02.178Z,101452.88
2018-06-18T13:40:35.964Z,101455.78
2018-06-18T13:43:09.636Z,101444.64
2018-06-18T13:45:40.891Z,101453.36
2018-06-18T13:48:14.393Z,101455.13
2018-06-18T13:50:42.732Z,101452.83
2018-06-18T13:53:10.933Z,101457.30
2018-06-18T13:55:39.315Z,101449.66
2018-06-18T13:58:07.696Z,101457.96
2018-06-18T14:00:36.121Z,101453.20
2018-06-18T14:03:05.925Z,101448.84
2018-06-18T14:05:34.174Z,101456.93
2018-06-18T14:08:02.682Z,101456.48
2018-06-18T14:10:31.967Z,101465.35
2018-06-18T14:13:00.391Z,101458.55
2018-06-18T14:15:28.821Z,101455.97
2018-06-18T14:17:57.148Z,101451.75
2018-06-18T14:20:26.576Z,101451.57
2018-06-18T14:22:55.075Z,101447.23
2018-06-18T14:25:23.343Z,101450.54
2018-06-18T14:27:51.620Z,101447.23
2018-06-18T14:30:25.278Z,101450.25
2018-06-18T14:32:58.821Z,101452.04
2018-06-18T14:35:32.386Z,101455.64
2018-06-18T14:38:06.012Z,101439.55
2018-06-18T14:40:34.387Z,101446.18
2018-06-18T14:43:02.702Z,101445.93
2018-06-18T14:45:31.006Z,101445.18
2018-06-18T14:47:59.378Z,101441.27
2018-06-18T14:50:27.701Z,101440.17
2018-06-18T14:52:56.050Z,101446.78
2018-06-18T14:55:24.272Z,101439.59
2018-06-18T14:57:52.642Z,101439.42
2018-06-18T15:00:26.338Z,101442.55
2018-06-18T15:02:54.915Z,101439.98
2018-06-18T15:05:24.288Z,101437.29
2018-06-18T15:07:52.522Z,101433.00
2018-06-18T15:10:20.825Z,101430.03
2018-06-18T15:12:52.169Z,101429.48
2018-06-18T15:15:25.735Z,101423.91
2018-06-18T15:17:54.036Z,101422.27
2018-06-18T15:20:23.122Z,101422.43
2018-06-18T15:22:57.975Z,101416.37
2018-06-18T15:25:27.889Z,101421.22
2018-06-18T15:27:56.977Z,101409.20
2018-06-18T15:30:25.258Z,101416.76
2018-06-18T15:32:53.476Z,101413.13
2018-06-18T15:35:21.729Z,101400.22
2018-06-18T15:37:49.972Z,101398.34
2018-06-18T15:40:18.230Z,101403.34
2018-06-18T15:42:46.503Z,101398.16
2018-06-18T15:45:14.740Z,101395.77
2018-06-18T15:47:43.023Z,101398.00
2018-06-18T15:50:11.265Z,101404.89
2018-06-18T15:52:39.682Z,101397.59
2018-06-18T15:55:08.201Z,101407.48
2018-06-18T15:57:37.518Z,101408.98
2018-06-18T16:00:05.915Z,101404.62
2018-06-18T16:02:34.221Z,101407.37
2018-06-18T16:05:02.890Z,101397.74
2018-06-18T16:07:31.183Z,101386.09
2018-06-18T16:09:59.507Z,101386.56
2018-06-18T16:12:27.736Z,101381.03
2018-06-18T16:14:56.553Z,101377.26
2018-06-18T16:17:24.847Z,101370.22
2018-06-18T16:19:53.156Z,101378.12
2018-06-18T16:22:21.430Z,101366.78
2018-06-18T16:24:49.708Z,101369.47
2018-06-18T16:27:17.928Z,101372.98
2018-06-18T16:29:46.241Z,101365.50
2018-06-18T16:32:14.500Z,101367.33
2018-06-18T16:34:42.718Z,101369.18
2018-06-18T16:37:10.965Z,101367.81
2018-06-18T16:39:39.176Z,101360.86
2018-06-18T16:42:07.390Z,101365.84
2018-06-18T16:44:35.607Z,101361.45
2018-06-18T16:47:03.853Z,101363.59
2018-06-18T16:49:32.121Z,101366.44
2018-06-18T16:52:00.376Z,101357.08
2018-06-18T16:54:28.652Z,101360.02
2018-06-18T16:56:56.881Z,101365.86
2018-06-18T16:59:25.144Z,101361.95
2018-06-18T17:01:53.364Z,101355.00
2018-06-18T17:04:21.619Z,101359.70
2018-06-18T17:06:49.950Z,101364.95
2018-06-18T17:09:18.179Z,101359.63
2018-06-18T17:11:46.408Z,101363.25
2018-06-18T17:14:14.680Z,101350.95
2018-06-18T17:16:43.009Z,101354.84
2018-06-18T17:19:11.164Z,101358.06
2018-06-18T17:21:39.415Z,101355.37
2018-06-18T17:24:07.903Z,101356.16
2018-06-18T17:26:36.180Z,101348.53
2018-06-18T17:29:04.463Z,101361.88
2018-06-18T17:31:32.748Z,101359.02
2018-06-18T17:34:01.019Z,101359.33
2018-06-18T17:36:29.221Z,101355.58
2018-06-18T17:38:57.495Z,101350.24
2018-06-18T17:41:25.723Z,101351.52
2018-06-18T17:43:54.004Z,101351.22
2018-06-18T17:46:22.281Z,101355.13
2018-06-18T17:48:51.183Z,101355.58
2018-06-18T17:51:19.476Z,101356.64
2018-06-18T17:53:47.848Z,101356.64
2018-06-18T17:56:16.144Z,101358.16
2018-06-18T17:58:44.794Z,101351.47
2018-06-18T18:01:13.128Z,101353.08
2018-06-18T18:03:41.398Z,101365.01
2018-06-18T18:06:09.753Z,101365.84
2018-06-18T18:08:38.050Z,101371.38
2018-06-18T18:11:06.338Z,101365.80
2018-06-18T18:13:34.696Z,101373.81
2018-06-18T18:16:02.913Z,101367.88
2018-06-18T18:18:31.300Z,101376.33
2018-06-18T18:20:59.653Z,101374.23
2018-06-18T18:23:28.053Z,101365.81
2018-06-18T18:25:56.596Z,101367.63
2018-06-18T18:28:24.933Z,101361.23
2018-06-18T18:30:53.259Z,101356.53
2018-06-18T18:33:21.617Z,101363.39
2018-06-18T18:35:50.146Z,101357.94
2018-06-18T18:38:18.583Z,101361.61
2018-06-18T18:40:46.929Z,101363.95
2018-06-18T18:43:15.242Z,101362.63
2018-06-18T18:45:43.463Z,101361.75
2018-06-18T18:48:12.319Z,101358.56
2018-06-18T18:50:40.677Z,101359.69
2018-06-18T18:53:08.968Z,101367.95
2018-06-18T18:55:53.139Z,101376.20
2018-06-18T18:58:48.627Z,101373.33
2018-06-18T19:01:17.136Z,101371.68
2018-06-18T19:03:47.864Z,101369.84
2018-06-18T19:06:16.094Z,101366.57
2018-06-18T19:08:44.635Z,101373.95
2018-06-18T19:11:12.900Z,101374.22
2018-06-18T19:13:41.097Z,101374.58
2018-06-18T19:16:09.928Z,101370.81
2018-06-18T19:18:39.656Z,101371.93
2018-06-18T19:21:09.496Z,101368.83
2018-06-18T19:23:37.988Z,101376.33
2018-06-18T19:26:06.212Z,101383.24
2018-06-18T19:28:35.669Z,101383.25
2018-06-18T19:31:06.724Z,101379.30
2018-06-18T19:33:42.437Z,101382.30
2018-06-18T19:36:10.696Z,101391.25
2018-06-18T19:38:39.031Z,101391.79
2018-06-18T19:41:07.678Z,101395.84
2018-06-18T19:43:36.009Z,101391.48
2018-06-18T19:46:04.665Z,101390.58
2018-06-18T19:48:40.428Z,101380.33
2018-06-18T19:51:08.673Z,101380.48
2018-06-18T19:53:36.976Z,101387.53
2018-06-18T19:56:05.369Z,101388.97
2018-06-18T19:58:33.681Z,101386.95
2018-06-18T20:01:04.147Z,101384.26
2018-06-18T20:05:59.788Z,101397.83
2018-06-18T20:08:29.813Z,101394.84
2018-06-18T20:10:58.052Z,101398.05
2018-06-18T20:13:26.336Z,101395.37
2018-06-18T20:15:54.544Z,101398.22
2018-06-18T20:18:22.950Z,101398.39
2018-06-18T20:20:51.179Z,101401.98
2018-06-18T20:23:21.688Z,101403.91
2018-06-18T20:25:52.888Z,101402.23
2018-06-18T20:28:21.116Z,101405.69
2018-06-18T20:30:49.397Z,101409.44
2018-06-18T20:33:19.176Z,101412.71
2018-06-18T20:35:59.004Z,101418.44
2018-06-18T20:38:28.690Z,101426.06
2018-06-18T20:40:56.910Z,101430.07
2018-06-18T20:43:27.695Z,101432.80
2018-06-18T20:45:56.005Z,101430.45
2018-06-18T20:48:24.259Z,101438.14
2018-06-18T20:50:52.563Z,101442.02
2018-06-18T20:53:20.876Z,101444.91
2018-06-18T20:55:49.114Z,101443.07
2018-06-18T20:58:17.429Z,101449.67
2018-06-18T21:00:45.761Z,101449.09
2018-06-18T21:03:14.147Z,101443.41
2018-06-18T21:05:42.418Z,101445.58
2018-06-18T21:08:10.852Z,101453.81
2018-06-18T21:10:39.122Z,101448.33
2018-06-18T21:13:07.463Z,101446.94
2018-06-18T21:15:35.757Z,101443.09
2018-06-18T21:18:03.999Z,101449.27
2018-06-18T21:20:32.278Z,101452.57
2018-06-18T21:23:00.638Z,101455.05
2018-06-18T21:25:28.877Z,101461.47
2018-06-18T21:27:57.204Z,101456.22
2018-06-18T21:30:25.745Z,101453.81
2018-06-18T21:32:54.056Z,101453.30
2018-06-18T21:35:22.418Z,101462.64
2018-06-18T21:37:50.843Z,101460.53
2018-06-18T21:40:19.161Z,101465.45
2018-06-18T21:42:47.409Z,101472.23
2018-06-18T21:45:20.050Z,101468.44
2018-06-18T21:47:48.892Z,101466.07
2018-06-18T21:50:17.664Z,101471.34
2018-06-18T21:52:46.017Z,101470.87
2018-06-18T21:55:14.580Z,101464.20
2018-06-18T21:57:42.909Z,101465.08
2018-06-18T22:00:21.035Z,101464.52
2018-06-18T22:02:49.433Z,101462.96
2018-06-18T22:05:17.759Z,101476.83
2018-06-18T22:07:46.105Z,101473.38
2018-06-18T22:10:14.397Z,101467.97
2018-06-18T22:12:42.660Z,101472.05
2018-06-18T22:15:11.487Z,101473.44
2018-06-18T22:17:39.751Z,101475.05
2018-06-18T22:20:08.035Z,101468.44
2018-06-18T22:22:36.598Z,101464.63
2018-06-18T22:25:06.751Z,101459.59
2018-06-18T22:27:36.000Z,101466.91
2018-06-18T22:30:11.323Z,101472.63
2018-06-18T22:32:40.765Z,101463.36
2018-06-18T22:35:09.454Z,101470.47
2018-06-18T22:37:38.930Z,101467.48
2018-06-18T22:40:07.774Z,101471.30
2018-06-18T22:42:36.120Z,101466.44
2018-06-18T22:45:04.899Z,101466.77
2018-06-18T22:47:33.212Z,101471.58
2018-06-18T22:50:01.453Z,101474.19
2018-06-18T22:52:30.441Z,101472.34
2018-06-18T22:54:58.767Z,101478.61
2018-06-18T22:57:27.222Z,101476.44
2018-06-18T22:59:55.506Z,101473.97
2018-06-18T23:02:26.187Z,101476.93
2018-06-18T23:04:54.642Z,101467.22
2018-06-18T23:07:23.006Z,101475.41
2018-06-18T23:09:51.355Z,101465.30
2018-06-18T23:12:21.077Z,101468.07
2018-06-18T23:14:49.657Z,101463.42
2018-06-18T23:17:17.927Z,101471.05
2018-06-18T23:19:46.217Z,101470.02
2018-06-18T23:22:14.471Z,101474.59
2018-06-18T23:24:42.760Z,101478.67
2018-06-18T23:27:10.996Z,101474.30
2018-06-18T23:29:39.242Z,101481.91
2018-06-18T23:32:07.509Z,101481.94
2018-06-18T23:34:35.800Z,101474.34
2018-06-18T23:37:04.075Z,101468.64
2018-06-18T23:39:32.416Z,101462.67
2018-06-18T23:42:00.964Z,101462.05
2018-06-18T23:44:29.244Z,101461.50
2018-06-18T23:46:57.727Z,101466.72
2018-06-18T23:49:26.056Z,101454.31
2018-06-18T23:51:54.400Z,101449.59
2018-06-18T23:54:22.739Z,101457.80
2018-06-18T23:56:50.995Z,101466.84
2018-06-18T23:59:19.290Z,101465.16
